createdAt,value
2023-02-24T00:01:29.656Z,24.07
2023-02-24T00:03:57.285Z,19.53
2023-02-24T00:06:24.460Z,22.67
2023-02-24T00:08:51.101Z,24.67
2023-02-24T00:11:19.056Z,18.93
2023-02-24T00:13:49.081Z,18.03
2023-02-24T00:16:19.756Z,22.57
2023-02-24T00:18:46.528Z,38.20
2023-02-24T00:21:15.476Z,25.93
2023-02-24T00:23:42.900Z,28.03
2023-02-24T00:26:11.116Z,26.67
2023-02-24T00:28:37.930Z,33.53
2023-02-24T00:31:14.436Z,28.00
2023-02-24T00:33:42.009Z,29.17
2023-02-24T00:36:13.273Z,36.03
2023-02-24T00:38:40.742Z,40.63
2023-02-24T00:41:15.751Z,40.43
2023-02-24T00:43:46.869Z,34.00
2023-02-24T00:46:18.674Z,29.37
2023-02-24T00:48:48.448Z,34.40
2023-02-24T00:51:16.825Z,23.50
2023-02-24T00:53:44.305Z,38.60
2023-02-24T00:56:16.302Z,43.10
2023-02-24T00:58:44.945Z,35.53
2023-02-24T01:01:17.060Z,35.33
2023-02-24T01:03:44.423Z,38.07
2023-02-24T01:06:12.488Z,27.73
2023-02-24T01:08:47.523Z,29.87
2023-02-24T01:11:33.885Z,25.83
2023-02-24T01:14:04.031Z,22.87
2023-02-24T01:16:30.681Z,20.07
2023-02-24T01:18:57.299Z,19.97
2023-02-24T01:21:24.422Z,21.07
2023-02-24T01:23:51.946Z,26.13
2023-02-24T01:26:19.461Z,23.73
2023-02-24T01:28:46.970Z,18.87
2023-02-24T01:31:16.994Z,26.67
2023-02-24T01:33:45.884Z,22.77
2023-02-24T01:36:23.035Z,20.20
2023-02-24T01:38:49.826Z,18.40
2023-02-24T01:41:18.022Z,20.37
2023-02-24T01:44:12.362Z,16.60
2023-02-24T01:46:40.411Z,27.37
2023-02-24T01:49:12.938Z,19.93
2023-02-24T01:51:49.291Z,24.20
2023-02-24T01:54:19.201Z,20.37
2023-02-24T01:56:47.637Z,18.63
2023-02-24T01:59:16.058Z,16.50
2023-02-24T02:01:43.414Z,20.70
2023-02-24T02:04:31.747Z,21.67
2023-02-24T02:07:00.621Z,16.43
2023-02-24T02:09:31.981Z,19.43
2023-02-24T02:11:58.942Z,19.43
2023-02-24T02:14:27.225Z,23.57
2023-02-24T02:16:56.929Z,17.30
2023-02-24T02:19:43.337Z,23.90
2023-02-24T02:22:23.585Z,26.43
2023-02-24T02:25:13.697Z,22.07
2023-02-24T02:27:59.068Z,23.20
2023-02-24T02:30:26.604Z,22.33
2023-02-24T02:33:04.749Z,22.67
2023-02-24T02:35:37.777Z,19.47
2023-02-24T02:38:15.125Z,19.33
2023-02-24T02:40:52.571Z,21.13
2023-02-24T02:43:31.370Z,20.90
2023-02-24T02:46:03.800Z,19.40
2023-02-24T02:48:34.552Z,18.33
2023-02-24T02:51:06.269Z,15.13
2023-02-24T02:53:39.232Z,19.93
2023-02-24T02:56:06.877Z,21.70
2023-02-24T02:58:36.364Z,19.87
2023-02-24T03:01:04.586Z,25.50
2023-02-24T03:03:42.796Z,13.93
2023-02-24T03:06:13.582Z,25.83
2023-02-24T03:08:44.108Z,19.33
2023-02-24T03:11:12.317Z,16.93
2023-02-24T03:13:41.547Z,18.93
2023-02-24T03:16:10.755Z,19.63
2023-02-24T03:18:40.538Z,21.87
2023-02-24T03:21:09.508Z,22.30
2023-02-24T03:23:40.146Z,23.57
2023-02-24T03:26:22.083Z,18.43
2023-02-24T03:28:59.377Z,21.53
2023-02-24T03:31:38.672Z,20.77
2023-02-24T03:34:14.877Z,26.40
2023-02-24T03:36:42.900Z,19.70
2023-02-24T03:39:12.295Z,25.97
2023-02-24T03:42:08.414Z,25.47
2023-02-24T03:44:35.617Z,26.47
2023-02-24T03:47:02.613Z,29.00
2023-02-24T03:49:29.980Z,25.80
2023-02-24T03:52:33.010Z,29.17
2023-02-24T03:55:03.211Z,25.87
2023-02-24T03:57:34.779Z,21.63
2023-02-24T04:00:22.274Z,27.37
2023-02-24T04:03:15.418Z,23.93
2023-02-24T04:05:47.667Z,28.37
2023-02-24T04:08:15.937Z,23.10
2023-02-24T04:10:52.581Z,27.67
2023-02-24T04:13:44.194Z,26.43
2023-02-24T04:16:28.238Z,18.40
2023-02-24T04:19:02.878Z,27.90
2023-02-24T04:21:32.276Z,29.00
2023-02-24T04:24:06.468Z,18.97
2023-02-24T04:26:36.449Z,20.00
2023-02-24T04:29:03.861Z,20.63
2023-02-24T04:31:31.080Z,19.23
2023-02-24T04:34:00.266Z,23.40
2023-02-24T04:36:34.920Z,18.57
2023-02-24T04:39:01.605Z,22.87
2023-02-24T04:41:28.308Z,22.00
2023-02-24T04:43:54.899Z,22.90
2023-02-24T04:46:23.453Z,15.47
2023-02-24T04:48:51.098Z,16.60
2023-02-24T04:51:21.174Z,18.47
2023-02-24T04:53:49.385Z,18.87
2023-02-24T04:56:15.983Z,16.63
2023-02-24T04:58:43.959Z,26.13
2023-02-24T05:01:11.085Z,16.90
2023-02-24T05:03:38.759Z,18.70
2023-02-24T05:06:06.445Z,22.40
2023-02-24T05:08:33.220Z,16.87
2023-02-24T05:11:06.698Z,16.23
2023-02-24T05:13:33.842Z,17.33
2023-02-24T05:16:04.691Z,24.30
2023-02-24T05:18:37.202Z,22.13
2023-02-24T05:21:24.834Z,15.40
2023-02-24T05:23:52.533Z,20.33
2023-02-24T05:26:20.497Z,19.17
2023-02-24T05:28:52.403Z,24.80
2023-02-24T05:31:24.162Z,23.17
2023-02-24T05:33:54.701Z,22.17
2023-02-24T05:36:21.938Z,20.97
2023-02-24T05:38:49.706Z,23.30
2023-02-24T05:41:18.181Z,25.67
2023-02-24T05:43:55.094Z,25.97
2023-02-24T05:46:29.327Z,24.60
2023-02-24T05:48:59.165Z,15.07
2023-02-24T05:51:26.822Z,32.80
2023-02-24T05:53:56.663Z,20.40
2023-02-24T05:56:23.557Z,21.07
2023-02-24T05:59:01.891Z,14.67
2023-02-24T06:01:32.882Z,23.43
2023-02-24T06:04:07.147Z,23.93
2023-02-24T06:06:37.748Z,23.10
2023-02-24T06:09:10.787Z,15.00
2023-02-24T06:11:38.942Z,16.80
2023-02-24T06:14:08.545Z,21.23
2023-02-24T06:16:36.160Z,24.20
2023-02-24T06:19:03.059Z,23.17
2023-02-24T06:21:30.092Z,23.20
2023-02-24T06:24:01.020Z,15.87
2023-02-24T06:26:29.960Z,19.73
2023-02-24T06:28:57.383Z,18.67
2023-02-24T06:31:24.361Z,14.47
2023-02-24T06:33:53.419Z,22.40
2023-02-24T06:36:20.622Z,18.80
2023-02-24T06:38:47.438Z,17.50
2023-02-24T06:41:14.265Z,22.20
2023-02-24T06:43:43.295Z,17.30
2023-02-24T06:46:15.492Z,21.90
2023-02-24T06:48:42.676Z,22.77
2023-02-24T06:51:11.065Z,20.70
2023-02-24T06:53:43.275Z,17.73
2023-02-24T06:56:19.825Z,18.03
2023-02-24T06:58:50.867Z,20.23
2023-02-24T07:01:19.251Z,30.97
2023-02-24T07:04:01.547Z,15.23
2023-02-24T07:06:29.567Z,22.77
2023-02-24T07:08:57.782Z,86.27
2023-02-24T07:11:25.056Z,16.77
2023-02-24T07:13:53.964Z,19.37
2023-02-24T07:16:25.170Z,23.83
2023-02-24T07:18:56.702Z,19.27
2023-02-24T07:21:24.820Z,21.37
2023-02-24T07:23:58.813Z,23.43
2023-02-24T07:26:27.839Z,17.57
2023-02-24T07:28:58.139Z,20.43
2023-02-24T07:31:26.303Z,18.67
2023-02-24T07:33:53.892Z,20.60
2023-02-24T07:36:23.227Z,20.23
2023-02-24T07:38:54.479Z,16.73
2023-02-24T07:41:23.035Z,17.47
2023-02-24T07:43:51.779Z,18.80
2023-02-24T07:46:26.426Z,20.20
2023-02-24T07:48:53.960Z,21.40
2023-02-24T07:51:22.508Z,16.97
2023-02-24T07:53:53.413Z,18.70
2023-02-24T07:56:21.172Z,24.30
2023-02-24T07:58:51.232Z,19.80
2023-02-24T08:01:23.361Z,17.57
2023-02-24T08:03:52.175Z,19.00
2023-02-24T08:06:27.317Z,16.17
2023-02-24T08:08:58.608Z,18.00
2023-02-24T08:11:35.771Z,19.83
2023-02-24T08:14:11.064Z,15.43
2023-02-24T08:16:41.081Z,15.77
2023-02-24T08:19:13.159Z,14.00
2023-02-24T08:21:47.478Z,17.07
2023-02-24T08:24:18.202Z,14.10
2023-02-24T08:27:04.243Z,14.73
2023-02-24T08:29:55.257Z,15.93
2023-02-24T08:32:24.420Z,14.77
2023-02-24T08:34:56.424Z,11.70
2023-02-24T08:37:25.138Z,11.63
2023-02-24T08:39:54.123Z,10.47
2023-02-24T08:42:20.923Z,12.83
2023-02-24T08:44:50.496Z,11.80
2023-02-24T08:47:21.285Z,12.80
2023-02-24T08:49:49.621Z,7.67
2023-02-24T08:52:16.539Z,18.87
2023-02-24T08:54:49.258Z,13.53
2023-02-24T08:57:18.233Z,14.63
2023-02-24T08:59:50.234Z,14.40
2023-02-24T09:02:19.176Z,17.17
2023-02-24T09:04:47.083Z,14.13
2023-02-24T09:07:18.476Z,14.27
2023-02-24T09:09:45.475Z,9.60
2023-02-24T09:12:22.260Z,11.40
2023-02-24T09:14:49.988Z,8.63
2023-02-24T09:17:20.680Z,11.53
2023-02-24T09:19:48.255Z,11.87
2023-02-24T09:22:29.835Z,12.63
2023-02-24T09:25:15.691Z,13.87
2023-02-24T09:27:42.418Z,11.33
2023-02-24T09:30:32.608Z,15.83
2023-02-24T09:33:02.466Z,10.30
2023-02-24T09:35:36.747Z,7.57
2023-02-24T09:38:05.612Z,9.40
2023-02-24T09:40:40.241Z,11.33
2023-02-24T09:43:17.755Z,11.93
2023-02-24T09:45:58.492Z,7.80
2023-02-24T09:48:43.810Z,11.37
2023-02-24T09:51:22.117Z,12.43
2023-02-24T09:53:52.762Z,14.73
2023-02-24T09:56:37.306Z,11.07
2023-02-24T09:59:26.363Z,10.60
2023-02-24T10:02:13.388Z,11.90
2023-02-24T10:04:49.473Z,11.17
2023-02-24T10:07:18.157Z,9.33
2023-02-24T10:10:02.045Z,9.67
2023-02-24T10:12:34.131Z,8.23
2023-02-24T10:15:32.355Z,8.93
2023-02-24T10:18:04.481Z,10.60
2023-02-24T10:20:40.937Z,8.33
2023-02-24T10:23:18.430Z,8.20
2023-02-24T10:25:53.727Z,7.90
2023-02-24T10:28:35.915Z,9.63
2023-02-24T10:31:10.420Z,11.00
2023-02-24T10:33:45.607Z,10.77
2023-02-24T10:36:17.301Z,11.97
2023-02-24T10:38:50.638Z,9.60
2023-02-24T10:41:17.733Z,13.70
2023-02-24T10:43:56.101Z,9.83
2023-02-24T10:46:41.653Z,11.60
2023-02-24T10:49:10.581Z,11.17
2023-02-24T10:51:38.724Z,8.70
2023-02-24T10:54:30.286Z,8.53
2023-02-24T10:57:15.740Z,10.30
2023-02-24T11:00:05.581Z,8.13
2023-02-24T11:02:56.146Z,10.23
2023-02-24T11:05:56.661Z,12.03
2023-02-24T11:08:36.750Z,9.00
2023-02-24T11:11:20.368Z,12.77
2023-02-24T11:14:09.070Z,10.90
2023-02-24T11:17:07.759Z,7.83
2023-02-24T11:19:39.536Z,10.97
2023-02-24T11:22:08.842Z,13.40
2023-02-24T11:24:36.724Z,13.17
2023-02-24T11:27:04.431Z,11.93
2023-02-24T11:29:50.172Z,14.23
2023-02-24T11:32:23.021Z,6.83
2023-02-24T11:34:55.598Z,13.47
2023-02-24T11:37:25.439Z,13.70
2023-02-24T11:40:10.305Z,12.90
2023-02-24T11:42:39.108Z,10.97
2023-02-24T11:45:24.446Z,11.77
2023-02-24T11:47:55.483Z,14.63
2023-02-24T11:50:32.132Z,12.67
2023-02-24T11:53:02.528Z,12.20
2023-02-24T11:55:38.879Z,9.93
2023-02-24T11:58:17.275Z,11.33
2023-02-24T12:00:50.190Z,14.93
2023-02-24T12:03:23.036Z,11.93
2023-02-24T12:05:53.416Z,13.47
2023-02-24T12:08:46.489Z,12.73
2023-02-24T12:11:18.148Z,9.20
2023-02-24T12:13:54.034Z,12.57
2023-02-24T12:16:30.872Z,13.60
2023-02-24T12:19:00.581Z,12.30
2023-02-24T12:21:32.416Z,12.83
2023-02-24T12:23:59.375Z,10.50
2023-02-24T12:26:30.267Z,15.07
2023-02-24T12:29:07.397Z,10.53
2023-02-24T12:32:00.695Z,14.90
2023-02-24T12:34:47.012Z,9.93
2023-02-24T12:37:32.478Z,12.60
2023-02-24T12:40:05.851Z,13.30
2023-02-24T12:42:41.210Z,12.93
2023-02-24T12:45:23.120Z,9.17
2023-02-24T12:47:49.690Z,10.77
2023-02-24T12:50:37.548Z,20.27
2023-02-24T12:53:06.859Z,14.67
2023-02-24T12:55:42.559Z,9.97
2023-02-24T12:58:09.346Z,14.47
2023-02-24T13:00:42.039Z,13.97
2023-02-24T13:03:27.296Z,11.63
2023-02-24T13:06:03.109Z,13.50
2023-02-24T13:08:45.023Z,7.87
2023-02-24T13:11:30.202Z,12.77
2023-02-24T13:14:03.571Z,12.57
2023-02-24T13:16:31.352Z,15.70
2023-02-24T13:19:05.496Z,9.00
2023-02-24T13:21:32.859Z,12.70
2023-02-24T13:24:01.206Z,14.60
2023-02-24T13:26:29.236Z,10.20
2023-02-24T13:29:03.368Z,13.17
2023-02-24T13:31:41.765Z,12.43
2023-02-24T13:34:14.687Z,17.17
2023-02-24T13:36:48.603Z,9.83
2023-02-24T13:39:23.515Z,15.93
2023-02-24T13:41:50.138Z,12.67
2023-02-24T13:44:22.803Z,13.73
2023-02-24T13:47:08.359Z,11.53
2023-02-24T13:50:13.441Z,13.43
2023-02-24T13:52:55.564Z,10.93
2023-02-24T13:55:34.974Z,14.13
2023-02-24T13:58:07.569Z,9.57
2023-02-24T14:00:37.110Z,11.83
2023-02-24T14:03:10.587Z,10.47
2023-02-24T14:05:37.366Z,9.70
2023-02-24T14:08:04.833Z,6.67
2023-02-24T14:10:34.712Z,7.83
2023-02-24T14:13:01.421Z,12.87
2023-02-24T14:15:28.618Z,9.30
2023-02-24T14:17:56.737Z,14.70
2023-02-24T14:20:24.157Z,12.03
2023-02-24T14:22:50.899Z,9.57
2023-02-24T14:25:18.177Z,13.40
2023-02-24T14:27:46.294Z,8.53
2023-02-24T14:30:23.892Z,8.33
2023-02-24T14:32:53.297Z,10.47
2023-02-24T14:35:23.743Z,8.47
2023-02-24T14:37:50.893Z,14.20
2023-02-24T14:40:19.826Z,20.57
2023-02-24T14:42:47.806Z,10.23
2023-02-24T14:45:18.898Z,8.87
2023-02-24T14:47:45.915Z,12.43
2023-02-24T14:50:16.794Z,12.13
2023-02-24T14:53:19.057Z,8.47
2023-02-24T14:55:48.609Z,18.27
2023-02-24T14:58:21.079Z,12.30
2023-02-24T15:00:53.365Z,15.10
2023-02-24T15:03:21.113Z,13.10
2023-02-24T15:05:49.821Z,12.97
2023-02-24T15:08:21.906Z,8.90
2023-02-24T15:10:48.761Z,14.87
2023-02-24T15:13:18.739Z,11.80
2023-02-24T15:15:45.496Z,14.70
2023-02-24T15:18:20.645Z,9.33
2023-02-24T15:20:47.271Z,11.20
2023-02-24T15:23:27.911Z,17.87
2023-02-24T15:25:54.667Z,11.60
2023-02-24T15:28:24.425Z,9.63
2023-02-24T15:31:02.258Z,8.27
2023-02-24T15:33:37.043Z,7.10
2023-02-24T15:36:06.570Z,10.97
2023-02-24T15:38:35.063Z,9.33
2023-02-24T15:41:03.266Z,9.97
2023-02-24T15:43:33.155Z,10.03
2023-02-24T15:45:59.959Z,12.80
2023-02-24T15:48:29.060Z,10.97
2023-02-24T15:50:58.670Z,9.87
2023-02-24T15:53:25.787Z,10.60
2023-02-24T15:55:52.512Z,12.03
2023-02-24T15:58:22.030Z,10.10
2023-02-24T16:00:52.460Z,16.17
2023-02-24T16:03:19.290Z,12.10
2023-02-24T16:05:46.043Z,13.97
2023-02-24T16:08:17.539Z,10.87
2023-02-24T16:10:44.446Z,12.37
2023-02-24T16:16:24.184Z,16.27
2023-02-24T16:18:51.384Z,11.97
2023-02-24T16:21:18.283Z,10.80
2023-02-24T16:23:45.275Z,13.67
2023-02-24T16:26:19.786Z,17.90
2023-02-24T16:28:56.592Z,16.23
2023-02-24T16:31:24.896Z,11.60
2023-02-24T16:33:55.276Z,12.73
2023-02-24T16:36:24.391Z,14.77
2023-02-24T16:38:51.793Z,14.07
2023-02-24T16:41:18.442Z,16.00
2023-02-24T16:43:45.245Z,19.00
2023-02-24T16:46:17.695Z,21.30
2023-02-24T16:48:45.727Z,18.80
2023-02-24T16:51:15.793Z,14.30
2023-02-24T16:53:43.104Z,15.47
2023-02-24T16:56:10.171Z,15.23
2023-02-24T16:58:36.853Z,17.53
2023-02-24T17:01:04.986Z,16.47
2023-02-24T17:03:37.172Z,15.10
2023-02-24T17:06:04.385Z,19.27
2023-02-24T17:08:31.247Z,16.43
2023-02-24T17:10:57.957Z,19.37
2023-02-24T17:13:24.625Z,18.57
2023-02-24T17:15:57.060Z,16.70
2023-02-24T17:18:24.344Z,19.73
2023-02-24T17:20:51.090Z,16.67
2023-02-24T17:23:17.729Z,17.13
2023-02-24T17:25:45.060Z,22.53
2023-02-24T17:28:11.862Z,17.83
2023-02-24T17:30:39.559Z,22.47
2023-02-24T17:33:06.190Z,19.00
2023-02-24T17:35:32.794Z,21.50
2023-02-24T17:37:59.397Z,17.07
2023-02-24T17:40:26.022Z,21.83
2023-02-24T17:42:52.631Z,21.37
2023-02-24T17:45:19.506Z,23.40
2023-02-24T17:47:46.089Z,17.77
2023-02-24T17:50:13.172Z,28.60
2023-02-24T17:52:40.452Z,22.83
2023-02-24T17:55:07.700Z,25.63
2023-02-24T17:57:34.820Z,23.00
2023-02-24T18:00:02.024Z,20.93
2023-02-24T18:02:39.071Z,26.63
2023-02-24T18:05:05.951Z,25.97
2023-02-24T18:07:32.564Z,21.27
2023-02-24T18:09:59.740Z,19.13
2023-02-24T18:12:26.925Z,22.93
2023-02-24T18:15:07.227Z,21.10
2023-02-24T18:17:35.822Z,24.87
2023-02-24T18:20:02.747Z,23.97
2023-02-24T18:22:29.359Z,20.93
2023-02-24T18:24:55.923Z,26.17
2023-02-24T18:27:22.553Z,21.93
2023-02-24T18:29:49.124Z,28.00
2023-02-24T18:32:16.196Z,24.83
2023-02-24T18:34:43.053Z,27.67
2023-02-24T18:37:09.655Z,29.60
2023-02-24T18:39:38.099Z,19.43
2023-02-24T18:42:05.085Z,23.20
2023-02-24T18:44:31.753Z,19.50
2023-02-24T18:46:58.469Z,23.23
2023-02-24T18:49:25.701Z,26.30
2023-02-24T18:51:52.369Z,24.67
2023-02-24T18:54:20.213Z,21.03
2023-02-24T18:56:46.894Z,20.37
2023-02-24T18:59:13.547Z,20.53
2023-02-24T19:01:40.628Z,18.57
2023-02-24T19:04:07.983Z,19.00
2023-02-24T19:06:35.424Z,19.87
2023-02-24T19:09:11.150Z,21.40
2023-02-24T19:11:38.891Z,22.83
2023-02-24T19:14:05.716Z,18.13
2023-02-24T19:16:32.702Z,21.73
2023-02-24T19:19:00.152Z,18.27
2023-02-24T19:21:28.096Z,16.50
2023-02-24T19:23:54.844Z,12.63
2023-02-24T19:26:23.133Z,18.23
2023-02-24T19:28:50.272Z,15.57
2023-02-24T19:31:18.505Z,16.93
2023-02-24T19:33:45.187Z,13.70
2023-02-24T19:36:12.031Z,15.70
2023-02-24T19:38:40.915Z,19.60
2023-02-24T19:41:07.553Z,11.87
2023-02-24T19:43:34.159Z,15.80
2023-02-24T19:46:06.279Z,13.07
2023-02-24T19:48:33.773Z,14.73
2023-02-24T19:51:05.926Z,14.10
2023-02-24T19:53:32.541Z,11.43
2023-02-24T19:55:59.125Z,14.80
2023-02-24T19:58:26.176Z,18.00
2023-02-24T20:00:52.824Z,10.07
2023-02-24T20:03:20.854Z,15.83
2023-02-24T20:05:47.465Z,15.37
2023-02-24T20:08:14.006Z,13.10
2023-02-24T20:10:40.572Z,9.53
2023-02-24T20:13:07.231Z,12.23
2023-02-24T20:15:35.891Z,16.57
2023-02-24T20:18:04.833Z,10.80
2023-02-24T20:20:31.629Z,11.27
2023-02-24T20:23:00.994Z,8.43
2023-02-24T20:25:27.632Z,8.07
2023-02-24T20:27:54.270Z,9.40
2023-02-24T20:30:20.948Z,10.57
2023-02-24T20:32:48.306Z,11.73
2023-02-24T20:35:15.237Z,9.67
2023-02-24T20:37:41.839Z,7.87
2023-02-24T20:40:08.971Z,11.33
2023-02-24T20:42:35.619Z,13.43
2023-02-24T20:45:03.255Z,11.40
2023-02-24T20:47:30.246Z,10.07
2023-02-24T20:49:56.947Z,7.63
2023-02-24T20:52:24.284Z,9.70
2023-02-24T20:54:51.470Z,11.13
2023-02-24T20:57:18.064Z,12.87
2023-02-24T20:59:57.897Z,11.20
2023-02-24T21:02:30.051Z,8.57
2023-02-24T21:04:56.815Z,12.50
2023-02-24T21:07:24.915Z,11.33
2023-02-24T21:09:52.303Z,13.63
2023-02-24T21:12:19.269Z,14.70
2023-02-24T21:14:45.928Z,17.17
2023-02-24T21:17:12.517Z,10.77
2023-02-24T21:19:39.159Z,10.97
2023-02-24T21:22:06.119Z,10.93
2023-02-24T21:24:32.989Z,13.97
2023-02-24T21:26:59.593Z,10.63
2023-02-24T21:29:26.484Z,14.10
2023-02-24T21:31:53.172Z,16.17
2023-02-24T21:34:20.270Z,9.97
2023-02-24T21:36:46.862Z,9.07
2023-02-24T21:39:17.833Z,14.27
2023-02-24T21:41:44.663Z,11.43
2023-02-24T21:44:12.089Z,16.60
2023-02-24T21:46:38.820Z,13.10
2023-02-24T21:49:05.719Z,14.67
2023-02-24T21:51:33.536Z,14.00
2023-02-24T21:54:00.864Z,12.57
2023-02-24T21:56:28.517Z,11.67
2023-02-24T21:58:59.411Z,11.47
2023-02-24T22:01:27.859Z,16.03
2023-02-24T22:03:55.242Z,15.53
2023-02-24T22:06:22.427Z,15.90
2023-02-24T22:08:49.278Z,12.10
2023-02-24T22:11:16.881Z,11.23
2023-02-24T22:13:44.081Z,14.27
2023-02-24T22:16:12.902Z,12.87
2023-02-24T22:18:39.611Z,10.73
2023-02-24T22:21:07.679Z,8.17
2023-02-24T22:23:34.545Z,25.10
2023-02-24T22:26:08.932Z,14.23
2023-02-24T22:28:36.916Z,15.90
2023-02-24T22:31:03.680Z,12.63
2023-02-24T22:33:31.435Z,15.67
2023-02-24T22:36:02.014Z,14.50
2023-02-24T22:38:30.433Z,15.57
2023-02-24T22:40:59.072Z,16.20
2023-02-24T22:43:26.362Z,14.50
2023-02-24T22:45:59.583Z,10.57
2023-02-24T22:48:26.750Z,14.50
2023-02-24T22:51:01.041Z,16.77
2023-02-24T22:53:28.980Z,13.73
2023-02-24T22:55:56.843Z,15.20
2023-02-24T22:58:24.101Z,18.30
2023-02-24T23:00:51.371Z,15.20
2023-02-24T23:03:19.841Z,12.63
2023-02-24T23:06:05.901Z,13.30
2023-02-24T23:08:33.693Z,20.10
2023-02-24T23:11:20.594Z,16.80
2023-02-24T23:13:48.368Z,12.27
2023-02-24T23:16:17.027Z,13.70
2023-02-24T23:18:50.931Z,20.90
2023-02-24T23:21:22.463Z,17.20
2023-02-24T23:23:49.943Z,15.20
2023-02-24T23:26:18.171Z,29.87
2023-02-24T23:28:44.991Z,13.70
2023-02-24T23:31:17.419Z,17.40
2023-02-24T23:33:44.155Z,22.50
2023-02-24T23:36:11.064Z,19.37
2023-02-24T23:38:37.815Z,15.33
2023-02-24T23:41:08.468Z,15.97
2023-02-24T23:43:35.137Z,19.27
2023-02-24T23:46:05.670Z,14.10
2023-02-24T23:48:33.078Z,14.40
2023-02-24T23:51:02.433Z,18.47
2023-02-24T23:53:29.027Z,11.10
2023-02-24T23:55:55.785Z,13.03
2023-02-24T23:58:22.383Z,16.27
